Portada
METAR-TAF:

METAR-TAF

Aeroports :

Warrensburg, Missouri, Estats Units d'Amèrica

latitud: 38-47-03N, longitud: 093-48-10W, altitud: 243 m

Observació

L'informe es va fer fa 5 minuts, a les 06:35 UTC
Vent 7 kt del Sud/Sud-Oest
Temperatura 28°C
Humitat 62%
Pressió 1011 hPa
Visibilitat: 16.1 km
Cel clar

METAR: KRCM 250635Z AUTO 20007KT 10SM CLR 28/20 A2986 RMK AO2

Hora: 01:40 (06:40 UTC)


TAF: manca

Observacions i pronòstics meteorològics de més de 4000 aeroports (METAR i TAF).

Les estacions disponibles són els punts grocs i vermells al mapa.

Posi el ratolí al punt desitjat per veure el nom de l'estació.

Feu clic per veure les observacions i els pronòstics meteorològics.

Per canviar el mapa: feu clic els botons verds amb una creu de color negre per apropar; al botó verd amb un guió per allunyar la imatge; o en les fletxes verdes per a mapes adjacents.


METAR-TAF: